Time;durP1;ratioP1;P1;durP2;ratioP2;P2;SDS_P1;SDS_P2;PMS_P1;PMS_P2;Temp;Humidity;BMP_temperature;BMP_pressure;BME280_temperature;BME280_humidity;BME280_pressure;Samples;Min_cycle;Max_cycle;Signal;HPM_P1;HPM_P2
2020/12/20 08:19:21;;;;;;;5.82;3.88;;;;;;;9.91;100.00;101496.91;5102515;27;21129;-78
2020/12/20 08:22:17;;;;;;;4.75;3.40;;;;;;;9.00;100.00;101488.44;5062955;28;20050;-80
2020/12/20 08:25:46;;;;;;;6.00;3.38;;;;;;;8.54;100.00;101495.25;5026708;28;20044;-80
2020/12/20 08:28:24;;;;;;;6.35;4.10;;;;;;;8.29;100.00;101492.41;5067731;28;20140;-81
2020/12/20 08:30:52;;;;;;;5.70;4.22;;;;;;;8.11;100.00;101496.47;5065883;28;20526;-80
2020/12/20 08:33:32;;;;;;;6.43;4.45;;;;;;;7.99;100.00;101507.50;5059507;28;20128;-78
2020/12/20 08:36:09;;;;;;;8.70;4.40;;;;;;;7.88;100.00;101508.69;5063928;28;20554;-78
2020/12/20 08:38:39;;;;;;;6.45;4.35;;;;;;;7.82;100.00;101507.97;5078948;28;20390;-79
2020/12/20 08:41:19;;;;;;;7.88;4.97;;;;;;;7.75;100.00;101503.72;5064455;28;20377;-78
2020/12/20 08:44:04;;;;;;;6.95;4.70;;;;;;;7.71;100.00;101517.13;5065800;28;20047;-80
2020/12/20 08:54:14;;;;;;;7.32;4.75;;;;;;;7.65;100.00;101519.97;5064689;28;20054;-79
2020/12/20 08:57:06;;;;;;;6.93;4.47;;;;;;;7.71;100.00;101521.59;5053814;28;20086;-78
2020/12/20 09:02:42;;;;;;;6.50;4.95;;;;;;;7.73;100.00;101514.44;5056449;28;20216;-77
2020/12/20 09:05:29;;;;;;;7.40;4.50;;;;;;;7.84;100.00;101516.81;5062830;28;21135;-77
2020/12/20 09:08:11;;;;;;;7.82;5.30;;;;;;;7.88;100.00;101526.47;5065191;28;20051;-77
2020/12/20 09:10:57;;;;;;;7.38;4.70;;;;;;;7.88;100.00;101522.00;5068423;28;20047;-77
2020/12/20 09:13:33;;;;;;;6.53;4.43;;;;;;;7.90;100.00;101519.31;5071029;28;20635;-78
2020/12/20 09:16:08;;;;;;;6.85;5.05;;;;;;;7.89;100.00;101513.09;5049471;28;20046;-79
2020/12/20 12:01:00;;;;;;;;;;;;;;;8.98;100.00;101475.16;5144823;27;19931;-75
2020/12/20 12:03:27;;;;;;;;;;;;;;;8.86;100.00;101468.41;5154600;27;19931;-76
2020/12/20 12:05:57;;;;;;;;;;;;;;;8.77;100.00;101463.38;5139430;27;20321;-76
2020/12/20 12:08:24;;;;;;;;;;;;;;;8.72;100.00;101459.97;5132158;27;19931;-76
2020/12/20 12:10:51;;;;;;;;;;;;;;;8.73;100.00;101460.81;5131047;27;19927;-76
2020/12/20 12:13:18;;;;;;;;;;;;;;;8.72;100.00;101451.06;5149803;27;20561;-76
2020/12/20 12:15:45;;;;;;;;;;;;;;;8.73;100.00;101451.03;5154759;27;19927;-76
2020/12/20 12:18:14;;;;;;;;;;;;;;;8.73;100.00;101452.81;5138348;27;19927;-76
2020/12/20 12:20:41;;;;;;;;;;;;;;;8.72;100.00;101449.28;5151804;27;19938;-76
2020/12/20 12:23:08;;;;;;;;;;;;;;;8.69;100.00;101444.06;5148830;27;20646;-76
2020/12/20 12:25:35;;;;;;;;;;;;;;;8.68;100.00;101436.09;5135588;27;19927;-76
2020/12/20 12:28:04;;;;;;;;;;;;;;;8.66;100.00;101446.81;5125707;27;19999;-76
2020/12/20 12:30:31;;;;;;;;;;;;;;;8.62;100.00;101448.72;5147158;27;19938;-76
2020/12/20 12:32:58;;;;;;;;;;;;;;;8.60;100.00;101452.34;5126344;27;20522;-76
2020/12/20 12:35:26;;;;;;;;;;;;;;;8.56;100.00;101448.91;5135158;27;20051;-77
2020/12/20 12:37:53;;;;;;;;;;;;;;;8.56;100.00;101456.91;5141379;27;19931;-77
2020/12/20 12:40:21;;;;;;;;;;;;;;;8.55;100.00;101454.31;5138756;27;19927;-77
2020/12/20 12:42:48;;;;;;;;;;;;;;;8.52;100.00;101454.41;5145805;27;19931;-75
2020/12/20 12:45:17;;;;;;;;;;;;;;;8.45;100.00;101437.69;5124301;27;19954;-75
2020/12/20 12:47:44;;;;;;;;;;;;;;;8.50;100.00;101457.09;5164682;27;22445;-76
2020/12/20 12:50:11;;;;;;;;;;;;;;;8.50;100.00;101449.09;5137291;27;19927;-79
2020/12/20 12:53:10;;;;;;;;;;;;;;;8.53;100.00;101464.13;5158437;27;19972;-83
2020/12/20 13:03:42;;;;;;;;;;;;;;;;;;;;;
2020/12/20 13:10:09;;;;;;;;;;;;;;;8.55;100.00;101433.81;5021341;28;20067;-77
2020/12/20 13:15:46;;;;;;;;;;;;;;;8.53;100.00;101442.78;5035740;28;19935;-76
2020/12/20 13:18:15;;;;;;;;;;;;;;;8.50;100.00;101440.22;5042848;28;19947;-78
2020/12/20 13:20:43;;;;;;;;;;;;;;;8.48;100.00;101439.41;5032067;28;19929;-78
2020/12/20 13:23:10;;;;;;;;;;;;;;;8.48;100.00;101442.94;5023971;28;20620;-78
2020/12/20 13:25:37;;;;;;;;;;;;;;;8.47;100.00;101443.84;5018592;28;19929;-78
2020/12/20 13:28:04;;;;;;;;;;;;;;;8.46;100.00;101442.09;5023636;28;19996;-78
2020/12/20 13:30:32;;;;;;;;;;;;;;;8.46;100.00;101439.44;5033302;28;19979;-78
2020/12/20 13:32:59;;;;;;;;;;;;;;;8.46;100.00;101430.56;5021269;28;19936;-79
2020/12/20 13:35:27;;;;;;;;;;;;;;;8.43;100.00;101428.84;5020722;28;19936;-78
2020/12/20 13:37:56;;;;;;;;;;;;;;;8.41;100.00;101428.91;5103844;27;19974;-78
2020/12/20 13:40:25;;;;;;;;;;;;;;;8.41;100.00;101436.03;5106096;27;19950;-78
2020/12/20 13:42:51;;;;;;;;;;;;;;;8.39;100.00;101438.75;5121596;27;19928;-77
2020/12/20 13:45:18;;;;;;;;;;;;;;;8.39;100.00;101443.22;5112776;27;20020;-77
2020/12/20 13:47:45;;;;;;;;;;;;;;;8.38;100.00;101430.78;5118850;27;20328;-75
2020/12/20 13:50:16;;;;;;;;;;;;;;;8.38;100.00;101442.34;5116450;27;19928;-76
2020/12/20 13:52:47;;;;;;;;;;;;;;;8.38;100.00;101446.81;5118914;27;19930;-73
2020/12/20 13:55:14;;;;;;;;;;;;;;;8.36;100.00;101448.59;5109926;27;19928;-77
2020/12/20 13:57:41;;;;;;;;;;;;;;;8.35;100.00;101439.72;5124165;27;19954;-75
2020/12/20 14:00:08;;;;;;;;;;;;;;;8.34;100.00;101440.66;5121997;27;19928;-75
2020/12/20 14:02:38;;;;;;;;;;;;;;;8.33;100.00;101432.69;5119811;27;19938;-76
2020/12/20 14:05:05;;;;;;;;;;;;;;;8.31;100.00;101431.88;5102848;27;19938;-77
2020/12/20 14:07:33;;;;;;;;;;;;;;;8.30;100.00;101427.47;5120511;27;20063;-78
2020/12/20 14:10:00;;;;;;;;;;;;;;;8.29;100.00;101429.22;5122544;27;19934;-76
2020/12/20 14:12:27;;;;;;;;;;;;;;;8.27;100.00;101427.56;5121887;27;20133;-76
2020/12/20 14:14:55;;;;;;;;;;;;;;;8.26;100.00;101424.03;5120857;27;19931;-76
2020/12/20 14:17:22;;;;;;;;;;;;;;;8.19;100.00;101415.31;5116171;27;19932;-77
2020/12/20 14:19:50;;;;;;;;;;;;;;;8.18;100.00;101424.22;5115813;27;19928;-77
2020/12/20 14:22:16;;;;;;;;;;;;;;;8.18;100.00;101420.69;5128074;27;19930;-78
2020/12/20 14:24:44;;;;;;;;;;;;;;;8.16;100.00;101419.88;5129832;27;19924;-78
2020/12/20 14:27:11;;;;;;;;;;;;;;;8.15;100.00;101418.09;5124253;27;19974;-78
2020/12/20 14:29:42;;;;;;;;;;;;;;;8.16;100.00;101425.22;5115304;27;19985;-81
2020/12/20 14:36:09;;;;;;;;;;;;;;;8.25;100.00;101429.38;4922782;28;22803;-81
2020/12/20 14:38:45;;;;;;;;;;;;;;;8.22;100.00;101419.66;4960434;28;20166;-85
2020/12/20 14:41:15;;;;;;;;;;;;;;;8.21;100.00;101427.72;4982275;28;22181;-79
2020/12/20 14:43:48;;;;;;;;;;;;;;;8.17;100.00;101419.81;4963754;28;19926;-80
2020/12/20 14:46:15;;;;;;;;;;;;;;;8.15;100.00;101419.00;4962293;28;20364;-85
2020/12/20 14:48:43;;;;;;;;;;;;;;;8.15;100.00;101428.78;4957505;28;19945;-80
2020/12/20 14:51:10;;;;;;;;;;;;;;;8.14;100.00;101437.72;4965058;28;19934;-77
2020/12/20 14:53:38;;;;;;;;;;;;;;;8.13;100.00;101433.31;4966251;28;19941;-78
2020/12/20 14:56:05;;;;;;;;;;;;;;;8.12;100.00;101436.91;5078645;22;19933;-78
2020/12/20 14:58:33;;;;;;;;;;;;;;;8.10;100.00;101428.94;5020176;28;19928;-79
2020/12/20 15:01:00;;;;;;;;;;;;;;;8.10;100.00;101415.59;5020719;28;21367;-77
2020/12/20 15:03:27;;;;;;;;;;;;;;;8.09;100.00;101411.19;4999087;28;19933;-80
2020/12/20 15:05:54;;;;;;;;;;;;;;;8.07;100.00;101405.00;5023914;28;19936;-83
2020/12/20 15:08:21;;;;;;;;;;;;;;;8.08;100.00;101405.91;5001736;28;19929;-77
2020/12/20 15:10:48;;;;;;;;;;;;;;;8.07;100.00;101399.66;5032951;28;19929;-77
2020/12/20 15:13:15;;;;;;;;;;;;;;;8.07;100.00;101404.13;5030957;28;19944;-77
2020/12/20 15:15:49;;;;;;;;;;;;;;;8.06;100.00;101397.06;5016843;28;20001;-78
2020/12/20 15:18:18;;;;;;;;;;;;;;;8.06;100.00;101402.41;5024469;28;20036;-78
2020/12/20 15:20:45;;;;;;;;;;;;;;;8.06;100.00;101413.94;5018875;28;19940;-76
2020/12/20 15:23:12;;;;;;;;;;;;;;;8.05;100.00;101420.19;5019370;28;19929;-79
2020/12/20 15:25:39;;;;;;;;;;;;;;;8.04;100.00;101438.91;5016307;28;19983;-79
2020/12/20 15:28:17;;;;;;;;;;;;;;;8.04;100.00;101431.78;5011795;28;19945;-77
2020/12/20 15:30:44;;;;;;;;;;;;;;;8.02;100.00;101430.94;5001174;28;19936;-77
2020/12/20 15:33:11;;;;;;;;;;;;;;;8.04;100.00;101441.56;5018935;28;19936;-79
2020/12/20 15:35:39;;;;;;;;;;;;;;;8.17;100.00;101440.28;5021388;28;19936;-80
2020/12/20 15:38:06;;;;;;;;;;;;;;;8.25;100.00;101424.91;5002847;28;19930;-83
2020/12/20 15:44:46;;;;;;;;;;;;;;;8.30;100.00;101432.81;4955896;28;19936;-83
2020/12/20 15:47:15;;;;;;;;;;;;;;;10.27;100.00;101417.94;5019867;28;20473;-77
2020/12/20 15:49:43;;;;;;;;;;;;;;;10.55;100.00;101431.09;5020807;28;19935;-73
2020/12/20 15:52:10;;;;;;;;;;;;;;;9.49;100.00;101444.03;5019053;28;19929;-73
2020/12/20 15:54:39;;;;;;;;;;;;;;;8.99;100.00;101444.84;5017446;28;19933;-73
2020/12/20 15:57:06;;;;;;;;;;;;;;;8.74;100.00;101449.25;5050925;28;20023;-71
2020/12/20 15:59:33;;;;;;;;;;;;;;;8.60;100.00;101445.22;5059390;28;19959;-74
2020/12/20 16:02:02;;;;;;;;;;;;;;;8.48;100.00;101448.28;5060358;28;20440;-72
2020/12/20 16:04:29;;;;;;;;;;;;;;;8.41;100.00;101436.03;5058741;28;20645;-73
2020/12/20 16:06:57;;;;;;;;;;;;;;;8.37;100.00;101437.03;5074679;28;20042;-73
2020/12/20 16:09:24;;;;;;;;;;;;;;;8.35;100.00;101444.19;5058580;28;19932;-73
2020/12/20 16:11:51;;;;;;;;;;;;;;;8.39;100.00;101432.53;5041579;28;19975;-73
2020/12/20 16:14:18;;;;;;;;;;;;;;;8.35;100.00;101430.84;5076186;28;19935;-72
2020/12/20 16:16:45;;;;;;;;;;;;;;;8.35;100.00;101430.84;5061434;28;19960;-73
2020/12/20 16:19:23;;;;;;;;;;;;;;;8.37;100.00;101429.03;5058820;28;19932;-72
2020/12/20 16:21:50;;;;;;;;;;;;;;;8.38;100.00;101429.00;5042919;28;19929;-73
2020/12/20 16:24:26;;;;;;;;;;;;;;;8.39;100.00;101430.75;5056726;28;19988;-73
2020/12/20 16:26:53;;;;;;;;;;;;;;;8.37;100.00;101418.34;5073015;28;20035;-72
2020/12/20 16:29:20;;;;;;;;;;;;;;;8.35;100.00;101412.19;5062190;28;20036;-72
2020/12/20 16:31:48;;;;;;;;;;;;;;;8.29;100.00;101425.69;5058311;28;19987;-72
2020/12/20 16:34:16;;;;;;;;;;;;;;;8.30;100.00;101430.13;5060938;28;19951;-71
2020/12/20 16:36:44;;;;;;;;;;;;;;;8.29;100.00;101425.69;5064617;28;19933;-73
2020/12/20 16:39:13;;;;;;;;;;;;;;;8.28;100.00;101419.50;5057820;28;20123;-73
2020/12/20 16:41:42;;;;;;;;;;;;;;;8.30;100.00;101422.13;5062483;28;19985;-72
2020/12/20 16:44:09;;;;;;;;;;;;;;;8.29;100.00;101431.91;5047237;28;20004;-71
2020/12/20 16:46:37;;;;;;;;;;;;;;;8.29;100.00;101434.56;5063994;28;19947;-73
2020/12/20 16:49:04;;;;;;;;;;;;;;;8.30;100.00;101438.16;5071175;28;19987;-72
2020/12/20 16:51:34;;;;;;;;;;;;;;;8.29;100.00;101431.91;5060622;28;19924;-74
2020/12/20 16:54:01;;;;;;;;;;;;;;;8.30;100.00;101449.69;5069012;28;19929;-74
2020/12/20 16:56:29;;;;;;;;;;;;;;;8.29;100.00;101447.03;5076858;28;19955;-72
2020/12/20 16:59:10;;;;;;;;;;;;;;;8.29;100.00;101441.72;5051274;28;19939;-72
2020/12/20 17:01:57;;;;;;;;;;;;;;;8.30;100.00;101459.47;5069875;28;20022;-73
2020/12/20 17:04:44;;;;;;;;;;;;;;;8.30;100.00;101459.47;5075219;28;19932;-72
2020/12/20 17:07:16;;;;;;;;;;;;;;;8.30;100.00;101448.81;5069600;28;20678;-73
2020/12/20 17:09:48;;;;;;;;;;;;;;;8.29;100.00;101452.38;5055875;28;19963;-73
2020/12/20 17:12:22;;;;;;;;;;;;;;;8.29;100.00;101441.72;5069802;28;19929;-73
2020/12/20 17:14:55;;;;;;;;;;;;;;;8.29;100.00;101437.25;5072663;28;19963;-72
2020/12/20 17:17:28;;;;;;;;;;;;;;;8.29;100.00;101441.72;5066760;28;19928;-72
2020/12/20 17:19:59;;;;;;;;;;;;;;;8.27;100.00;101448.91;5065314;28;19933;-73
2020/12/20 17:22:26;;;;;;;;;;;;;;;8.27;100.00;101456.91;5071951;28;20057;-72
2020/12/20 17:24:58;;;;;;;;;;;;;;;8.29;100.00;101458.59;5049278;28;19995;-73
2020/12/20 17:27:30;;;;;;;;;;;;;;;8.27;100.00;101451.56;5064302;28;19978;-74
2020/12/20 17:29:58;;;;;;;;;;;;;;;8.30;100.00;101456.81;5061230;28;19974;-74
2020/12/20 17:32:30;;;;;;;;;;;;;;;8.28;100.00;101453.31;5062560;28;19952;-75
2020/12/20 17:34:56;;;;;;;;;;;;;;;8.28;100.00;101453.31;5074773;28;19947;-73
2020/12/20 17:37:23;;;;;;;;;;;;;;;8.31;100.00;101451.41;5071936;28;19924;-74
2020/12/20 17:39:58;;;;;;;;;;;;;;;8.33;100.00;101454.03;5078726;28;20530;-72
2020/12/20 17:42:25;;;;;;;;;;;;;;;8.33;100.00;101467.38;5075050;28;19943;-71
2020/12/20 17:44:52;;;;;;;;;;;;;;;8.31;100.00;101472.78;5079833;28;19924;-71
2020/12/20 17:47:24;;;;;;;;;;;;;;;8.30;100.00;101465.69;5069883;28;19928;-72
2020/12/20 17:49:56;;;;;;;;;;;;;;;8.29;100.00;101457.72;5067013;28;19931;-72
2020/12/20 17:52:23;;;;;;;;;;;;;;;8.32;100.00;101458.50;5072512;28;19938;-72
2020/12/20 17:54:50;;;;;;;;;;;;;;;8.32;100.00;101449.63;5080063;28;19928;-72
2020/12/20 17:57:17;;;;;;;;;;;;;;;8.31;100.00;101458.56;5082827;28;19925;-71
2020/12/20 17:59:44;;;;;;;;;;;;;;;8.31;100.00;101450.56;5070843;28;19966;-76
2020/12/20 18:02:11;;;;;;;;;;;;;;;8.32;100.00;101447.81;5067652;28;19924;-72
2020/12/20 18:04:39;;;;;;;;;;;;;;;8.30;100.00;101449.69;5073726;28;19924;-73
2020/12/20 18:07:06;;;;;;;;;;;;;;;8.29;100.00;101447.03;5074650;28;19928;-73
2020/12/20 18:09:34;;;;;;;;;;;;;;;8.28;100.00;101442.63;5080830;28;19954;-73
2020/12/20 18:12:01;;;;;;;;;;;;;;;8.30;100.00;101448.81;5065122;28;19928;-73
2020/12/20 18:14:28;;;;;;;;;;;;;;;8.28;100.00;101451.50;5075343;28;20317;-73
2020/12/20 18:16:55;;;;;;;;;;;;;;;8.26;100.00;101455.13;5067238;28;20281;-72
2020/12/20 18:19:22;;;;;;;;;;;;;;;8.26;100.00;101450.69;5062640;28;20699;-73
2020/12/20 18:21:50;;;;;;;;;;;;;;;8.26;100.00;101442.69;5065157;28;19932;-72
2020/12/20 18:24:18;;;;;;;;;;;;;;;8.24;100.00;101444.53;5064057;28;19996;-73
2020/12/20 18:26:46;;;;;;;;;;;;;;;8.24;100.00;101432.97;5062987;28;19951;-73
2020/12/20 18:29:14;;;;;;;;;;;;;;;8.25;100.00;101434.72;5054692;28;19928;-72
2020/12/20 18:31:46;;;;;;;;;;;;;;;8.27;100.00;101438.22;5046821;28;20019;-74
2020/12/20 18:34:13;;;;;;;;;;;;;;;8.19;100.00;101441.13;5060496;28;19928;-73
2020/12/20 18:36:40;;;;;;;;;;;;;;;8.21;100.00;101443.75;5072189;28;19936;-73
2020/12/20 18:39:09;;;;;;;;;;;;;;;8.20;100.00;101450.88;5088664;28;19987;-73
2020/12/20 18:41:37;;;;;;;;;;;;;;;8.19;100.00;101444.66;5065512;28;19935;-74
2020/12/20 18:44:04;;;;;;;;;;;;;;;8.23;100.00;101448.13;5072291;28;20679;-73
2020/12/20 18:46:38;;;;;;;;;;;;;;;8.25;100.00;101453.41;5070254;28;19936;-71
2020/12/20 18:49:13;;;;;;;;;;;;;;;8.29;100.00;101463.91;5070003;28;20481;-73
2020/12/20 18:51:40;;;;;;;;;;;;;;;8.28;100.00;101456.84;5074559;28;19928;-74
2020/12/20 18:54:08;;;;;;;;;;;;;;;8.29;100.00;101468.38;5054851;28;19981;-74
2020/12/20 18:56:36;;;;;;;;;;;;;;;8.27;100.00;101462.25;5070724;28;19975;-74
2020/12/20 18:59:03;;;;;;;;;;;;;;;8.26;100.00;101460.47;5063658;28;19932;-74
2020/12/20 19:01:32;;;;;;;;;;;;;;;8.25;100.00;101464.06;5066496;28;19928;-74
2020/12/20 19:03:59;;;;;;;;;;;;;;;8.24;100.00;101459.66;5053026;28;19964;-74
2020/12/20 19:06:26;;;;;;;;;;;;;;;8.23;100.00;101449.91;5073441;28;19928;-70
2020/12/20 19:08:53;;;;;;;;;;;;;;;8.19;100.00;101450.00;5069810;28;19932;-69
2020/12/20 19:11:22;;;;;;;;;;;;;;;8.21;100.00;101438.41;5074245;28;20009;-69
2020/12/20 19:13:49;;;;;;;;;;;;;;;8.21;100.00;101441.06;5063885;28;19928;-69
2020/12/20 19:16:29;;;;;;;;;;;;;;;8.19;100.00;101446.47;5060968;28;19940;-70
2020/12/20 19:18:56;;;;;;;;;;;;;;;8.20;100.00;101437.53;5074387;28;20308;-69
2020/12/20 19:21:23;;;;;;;;;;;;;;;8.21;100.00;101439.28;5069824;28;20503;-70
2020/12/20 19:23:50;;;;;;;;;;;;;;;8.22;100.00;101440.16;5061993;28;20015;-70
2020/12/20 19:26:18;;;;;;;;;;;;;;;8.19;100.00;101431.34;5071690;28;19928;-70
2020/12/20 19:28:46;;;;;;;;;;;;;;;8.18;100.00;101434.91;5064403;28;20464;-70
2020/12/20 19:31:14;;;;;;;;;;;;;;;8.19;100.00;101442.00;5067197;28;19933;-69
2020/12/20 19:33:42;;;;;;;;;;;;;;;8.21;100.00;101443.75;5075330;28;19992;-70
2020/12/20 19:36:09;;;;;;;;;;;;;;;8.26;100.00;101437.34;5077657;28;19929;-70
2020/12/20 19:38:37;;;;;;;;;;;;;;;8.28;100.00;101445.31;5075422;28;20131;-70
2020/12/20 19:41:07;;;;;;;;;;;;;;;8.24;100.00;101443.66;5070287;28;19967;-70
2020/12/20 19:43:35;;;;;;;;;;;;;;;8.21;100.00;101441.06;5063153;28;20019;-71
2020/12/20 19:46:02;;;;;;;;;;;;;;;8.19;100.00;101441.13;5076277;28;19928;-70
2020/12/20 19:48:29;;;;;;;;;;;;;;;8.20;100.00;101437.53;5071630;28;20028;-70
2020/12/20 19:50:56;;;;;;;;;;;;;;;8.19;100.00;101439.34;5073051;28;19929;-70
2020/12/20 19:53:23;;;;;;;;;;;;;;;8.19;100.00;101426.00;5074571;28;19947;-70
2020/12/20 19:55:53;;;;;;;;;;;;;;;8.19;100.00;101414.47;5039345;28;19929;-70
2020/12/20 19:58:20;;;;;;;;;;;;;;;8.18;100.00;101412.69;5063716;28;19975;-70
2020/12/20 20:00:47;;;;;;;;;;;;;;;8.23;100.00;101409.91;5068076;28;20019;-69
2020/12/20 20:03:15;;;;;;;;;;;;;;;8.20;100.00;101413.53;5075800;28;19932;-70
2020/12/20 20:05:42;;;;;;;;;;;;;;;8.19;100.00;101409.13;5076632;28;19928;-74
2020/12/20 20:08:10;;;;;;;;;;;;;;;8.22;100.00;101409.00;5076187;28;19963;-73
2020/12/20 20:10:39;;;;;;;;;;;;;;;8.29;100.00;101410.56;5068204;28;19936;-70
2020/12/20 20:13:06;;;;;;;;;;;;;;;8.27;100.00;101406.22;5058321;28;19924;-69
2020/12/20 20:15:33;;;;;;;;;;;;;;;8.23;100.00;101405.44;5074945;28;19929;-71
2020/12/20 20:18:00;;;;;;;;;;;;;;;8.21;100.00;101411.72;5072512;28;20525;-70
2020/12/20 20:20:32;;;;;;;;;;;;;;;8.21;100.00;101407.25;5073253;28;19932;-69
2020/12/20 20:22:59;;;;;;;;;;;;;;;8.21;100.00;101399.25;5074233;28;19932;-70
2020/12/20 20:25:26;;;;;;;;;;;;;;;8.20;100.00;101400.19;5067754;28;19960;-70
2020/12/20 20:27:53;;;;;;;;;;;;;;;8.19;100.00;101407.31;5075068;28;19935;-71
2020/12/20 20:30:21;;;;;;;;;;;;;;;8.21;100.00;101409.94;5065634;28;20003;-71
2020/12/20 20:32:49;;;;;;;;;;;;;;;8.21;100.00;101411.72;5051230;28;19950;-71
2020/12/20 20:35:15;;;;;;;;;;;;;;;8.21;100.00;101407.25;5074148;28;19981;-70
2020/12/20 20:37:44;;;;;;;;;;;;;;;8.19;100.00;101412.66;5069235;28;19932;-71
2020/12/20 20:40:13;;;;;;;;;;;;;;;8.21;100.00;101409.94;5064455;28;19933;-71
2020/12/20 20:42:47;;;;;;;;;;;;;;;8.21;100.00;101407.25;5070411;28;19954;-71
2020/12/20 20:45:14;;;;;;;;;;;;;;;8.19;100.00;101410.00;5072380;28;19929;-71
2020/12/20 20:47:44;;;;;;;;;;;;;;;8.25;100.00;101413.38;5084603;28;19924;-71
2020/12/20 20:50:13;;;;;;;;;;;;;;;8.26;100.00;101407.09;5074428;28;19924;-71
2020/12/20 20:52:41;;;;;;;;;;;;;;;8.25;100.00;101405.38;5067796;28;19928;-71
2020/12/20 20:55:10;;;;;;;;;;;;;;;8.24;100.00;101403.63;5069775;28;19931;-72
2020/12/20 20:57:37;;;;;;;;;;;;;;;8.25;100.00;101418.72;5075055;28;19938;-71
2020/12/20 21:00:06;;;;;;;;;;;;;;;8.23;100.00;101436.56;5083911;28;19962;-71
2020/12/20 21:02:33;;;;;;;;;;;;;;;8.31;100.00;101439.88;5077324;28;19925;-71
2020/12/20 21:05:00;;;;;;;;;;;;;;;8.34;100.00;101437.13;5080183;28;19951;-70
2020/12/20 21:07:28;;;;;;;;;;;;;;;8.37;100.00;101445.03;5064633;28;19924;-72
2020/12/20 21:09:55;;;;;;;;;;;;;;;8.34;100.00;101446.00;5070775;28;22303;-72
2020/12/20 21:12:26;;;;;;;;;;;;;;;8.32;100.00;101457.63;5073812;28;19928;-73
2020/12/20 21:14:53;;;;;;;;;;;;;;;8.32;100.00;101457.63;5071455;28;20424;-73
2020/12/20 21:17:20;;;;;;;;;;;;;;;8.31;100.00;101459.44;5068976;28;19940;-73
2020/12/20 21:19:47;;;;;;;;;;;;;;;8.30;100.00;101456.81;5068257;28;19929;-72
2020/12/20 21:22:14;;;;;;;;;;;;;;;8.31;100.00;101455.88;5069962;28;19932;-73
2020/12/20 21:24:41;;;;;;;;;;;;;;;8.29;100.00;101447.91;5070601;28;19936;-72
2020/12/20 21:27:08;;;;;;;;;;;;;;;8.39;100.00;101445.88;5075943;28;19935;-70
2020/12/20 21:29:35;;;;;;;;;;;;;;;8.47;100.00;101449.19;5078713;28;19935;-70
2020/12/20 21:32:02;;;;;;;;;;;;;;;8.50;100.00;101448.22;5072538;28;19980;-70
2020/12/20 21:34:29;;;;;;;;;;;;;;;8.49;100.00;101449.16;5077320;28;19924;-70
2020/12/20 21:36:57;;;;;;;;;;;;;;;8.43;100.00;101451.06;5076151;28;19929;-70
2020/12/20 21:39:23;;;;;;;;;;;;;;;8.39;100.00;101457.41;5083742;28;19928;-70
2020/12/20 21:41:51;;;;;;;;;;;;;;;8.35;100.00;101462.88;5078531;28;20004;-70
2020/12/20 21:44:18;;;;;;;;;;;;;;;8.31;100.00;101464.75;5080206;28;19928;-70
2020/12/20 21:46:46;;;;;;;;;;;;;;;8.30;100.00;101459.47;5074309;28;19955;-70
2020/12/20 21:49:14;;;;;;;;;;;;;;;8.27;100.00;101462.25;5072323;28;19977;-70
2020/12/20 21:51:42;;;;;;;;;;;;;;;8.26;100.00;101463.13;5065633;28;19928;-70
2020/12/20 21:54:09;;;;;;;;;;;;;;;8.25;100.00;101448.06;5074001;28;19946;-70
2020/12/20 21:56:37;;;;;;;;;;;;;;;8.23;100.00;101452.59;5078931;28;19935;-69
2020/12/20 21:59:04;;;;;;;;;;;;;;;8.22;100.00;101429.47;5076678;28;19933;-70
2020/12/20 22:01:51;;;;;;;;;;;;;;;8.20;100.00;101429.53;5065072;28;20678;-70
2020/12/20 22:04:19;;;;;;;;;;;;;;;8.21;100.00;101443.75;5084647;28;19936;-70
2020/12/20 22:06:46;;;;;;;;;;;;;;;8.19;100.00;101442.00;5073767;28;19932;-70
2020/12/20 22:09:13;;;;;;;;;;;;;;;8.21;100.00;101451.75;5071007;28;19928;-70
2020/12/20 22:11:41;;;;;;;;;;;;;;;8.20;100.00;101450.88;5077627;28;19992;-70
2020/12/20 22:14:08;;;;;;;;;;;;;;;8.19;100.00;101455.34;5075198;28;19972;-71
2020/12/20 22:16:35;;;;;;;;;;;;;;;8.21;100.00;101454.41;5069002;28;19937;-70
2020/12/20 22:19:03;;;;;;;;;;;;;;;8.18;100.00;101444.69;5064676;28;19929;-70
2020/12/20 22:21:30;;;;;;;;;;;;;;;8.19;100.00;101449.13;5075187;28;19963;-70
2020/12/20 22:23:57;;;;;;;;;;;;;;;8.18;100.00;101450.03;5075572;28;19935;-70
2020/12/20 22:26:24;;;;;;;;;;;;;;;8.18;100.00;101448.22;5074861;28;19933;-70
2020/12/20 22:28:52;;;;;;;;;;;;;;;8.18;100.00;101442.03;5074360;28;19924;-69
2020/12/20 22:31:19;;;;;;;;;;;;;;;8.16;100.00;101444.75;5066794;28;19931;-70
2020/12/20 22:33:46;;;;;;;;;;;;;;;8.16;100.00;101439.41;5067362;28;19928;-70
2020/12/20 22:36:14;;;;;;;;;;;;;;;8.16;100.00;101439.41;5069470;28;19939;-71
2020/12/20 22:38:41;;;;;;;;;;;;;;;8.15;100.00;101448.34;5063642;28;19933;-70
2020/12/20 22:41:08;;;;;;;;;;;;;;;8.16;100.00;101444.75;5069116;28;20011;-70
2020/12/20 22:43:35;;;;;;;;;;;;;;;8.17;100.00;101441.16;5062440;28;20000;-70
2020/12/20 22:46:02;;;;;;;;;;;;;;;8.15;100.00;101443.03;5061556;28;19924;-71
2020/12/20 22:48:29;;;;;;;;;;;;;;;8.15;100.00;101435.00;5063168;28;20288;-73
2020/12/20 22:50:56;;;;;;;;;;;;;;;8.15;100.00;101428.78;5067896;28;19924;-72
2020/12/20 22:53:24;;;;;;;;;;;;;;;8.15;100.00;101445.69;5051343;28;20427;-72
2020/12/20 22:55:52;;;;;;;;;;;;;;;8.14;100.00;101438.56;5065156;28;19932;-72
2020/12/20 22:58:19;;;;;;;;;;;;;;;8.16;100.00;101433.22;5067115;28;19928;-72
2020/12/20 23:00:46;;;;;;;;;;;;;;;8.14;100.00;101443.91;5060818;28;19939;-71
2020/12/20 23:03:13;;;;;;;;;;;;;;;8.14;100.00;101433.25;5044678;28;19928;-71
2020/12/20 23:05:41;;;;;;;;;;;;;;;8.13;100.00;101442.19;5046545;28;19928;-72
2020/12/20 23:08:08;;;;;;;;;;;;;;;8.13;100.00;101441.31;5064552;28;19963;-72
2020/12/20 23:10:36;;;;;;;;;;;;;;;8.14;100.00;101443.91;5062350;28;19932;-73
2020/12/20 23:13:04;;;;;;;;;;;;;;;8.13;100.00;101439.50;5062155;28;20061;-72
2020/12/20 23:15:31;;;;;;;;;;;;;;;8.14;100.00;101448.38;5060209;28;20620;-72
2020/12/20 23:17:58;;;;;;;;;;;;;;;8.12;100.00;101443.09;5038611;28;19933;-72
2020/12/20 23:20:25;;;;;;;;;;;;;;;8.12;100.00;101439.56;5063875;28;19928;-72
2020/12/20 23:22:52;;;;;;;;;;;;;;;8.13;100.00;101431.50;5073744;28;19931;-72
2020/12/20 23:25:19;;;;;;;;;;;;;;;8.13;100.00;101433.31;5073911;28;20738;-73
2020/12/20 23:27:49;;;;;;;;;;;;;;;8.11;100.00;101433.38;5068733;28;19967;-72
2020/12/20 23:30:16;;;;;;;;;;;;;;;8.12;100.00;101426.22;5065172;28;19939;-71
2020/12/20 23:32:59;;;;;;;;;;;;;;;8.11;100.00;101422.69;5066426;28;19939;-72
2020/12/20 23:35:26;;;;;;;;;;;;;;;8.11;100.00;101421.78;5064523;28;19940;-72
2020/12/20 23:37:53;;;;;;;;;;;;;;;8.11;100.00;101419.13;5068146;28;19946;-72
2020/12/20 23:40:20;;;;;;;;;;;;;;;8.12;100.00;101415.56;5066963;28;20435;-72
2020/12/20 23:42:47;;;;;;;;;;;;;;;8.12;100.00;101415.56;5063973;28;19976;-72
2020/12/20 23:45:15;;;;;;;;;;;;;;;8.10;100.00;101410.25;5066676;28;19943;-72
2020/12/20 23:47:43;;;;;;;;;;;;;;;8.12;100.00;101412.91;5058692;28;19930;-72
2020/12/20 23:50:11;;;;;;;;;;;;;;;8.12;100.00;101407.56;5071777;28;19980;-72
2020/12/20 23:52:38;;;;;;;;;;;;;;;8.11;100.00;101412.03;5079750;28;19928;-72
2020/12/20 23:55:05;;;;;;;;;;;;;;;8.11;100.00;101406.69;5076667;28;20216;-72
2020/12/20 23:57:32;;;;;;;;;;;;;;;8.10;100.00;101410.25;5073097;28;19947;-72
2020/12/20 23:59:59;;;;;;;;;;;;;;;8.11;100.00;101412.03;5077798;28;19928;-72
